createdAt,value
2023-04-05T00:02:06.816Z,13.38
2023-04-05T00:04:36.508Z,13.10
2023-04-05T00:07:08.205Z,11.80
2023-04-05T00:09:37.678Z,11.40
2023-04-05T00:12:09.468Z,11.77
2023-04-05T00:14:38.859Z,11.13
2023-04-05T00:17:10.897Z,12.77
2023-04-05T00:19:43.109Z,10.43
2023-04-05T00:22:12.879Z,15.18
2023-04-05T00:24:43.381Z,10.82
2023-04-05T00:27:14.352Z,12.90
2023-04-05T00:29:43.802Z,10.90
2023-04-05T00:32:13.465Z,11.70
2023-04-05T00:34:42.925Z,10.25
2023-04-05T00:37:13.142Z,12.02
2023-04-05T00:39:42.744Z,12.23
2023-04-05T00:42:13.517Z,9.18
2023-04-05T00:44:42.909Z,11.88
2023-04-05T00:47:12.543Z,10.32
2023-04-05T00:49:43.090Z,10.38
2023-04-05T00:52:13.307Z,12.15
2023-04-05T00:54:43.665Z,10.57
2023-04-05T00:57:15.009Z,14.13
2023-04-05T00:59:44.787Z,10.95
2023-04-05T01:02:20.852Z,13.65
2023-04-05T01:05:01.536Z,11.00
2023-04-05T01:07:42.243Z,11.27
2023-04-05T01:10:15.321Z,12.10
2023-04-05T01:12:47.520Z,12.52
2023-04-05T01:15:20.588Z,12.38
2023-04-05T01:17:54.349Z,15.18
2023-04-05T01:20:28.456Z,12.88
2023-04-05T01:23:37.584Z,14.40
2023-04-05T01:26:50.189Z,11.98
2023-04-05T01:29:59.100Z,10.75
2023-04-05T01:32:56.632Z,10.45
2023-04-05T01:35:38.831Z,8.45
2023-04-05T01:38:13.206Z,12.27
2023-04-05T01:40:43.648Z,12.63
2023-04-05T01:43:18.135Z,11.50
2023-04-05T01:45:49.245Z,12.90
2023-04-05T01:48:18.893Z,10.45
2023-04-05T01:50:48.348Z,11.80
2023-04-05T01:53:18.000Z,10.88
2023-04-05T01:55:47.453Z,12.07
2023-04-05T01:58:16.885Z,14.52
2023-04-05T02:00:47.826Z,11.30
2023-04-05T02:03:17.383Z,9.85
2023-04-05T02:05:47.064Z,11.32
2023-04-05T02:08:16.554Z,9.93
2023-04-05T02:10:46.431Z,10.38
2023-04-05T02:13:16.315Z,10.00
2023-04-05T02:15:51.215Z,11.65
2023-04-05T02:18:22.209Z,11.30
2023-04-05T02:20:52.703Z,11.77
2023-04-05T02:23:22.174Z,10.98
2023-04-05T02:25:51.604Z,11.75
2023-04-05T02:28:21.028Z,13.35
2023-04-05T02:30:51.925Z,11.27
2023-04-05T02:33:22.779Z,9.52
2023-04-05T02:35:54.804Z,13.45
2023-04-05T02:38:24.365Z,12.23
2023-04-05T02:40:53.740Z,9.88
2023-04-05T02:43:23.199Z,12.15
2023-04-05T02:45:54.301Z,12.48
2023-04-05T02:48:23.859Z,10.10
2023-04-05T02:50:55.001Z,13.02
2023-04-05T02:53:27.192Z,10.82
2023-04-05T02:56:02.509Z,10.65
2023-04-05T02:58:33.699Z,11.55
2023-04-05T03:01:07.399Z,9.55
2023-04-05T03:03:38.040Z,13.95
2023-04-05T03:06:10.934Z,12.18
2023-04-05T03:08:51.815Z,13.93
2023-04-05T03:14:00.596Z,15.80
2023-04-05T03:16:51.710Z,15.57
2023-04-05T03:19:27.511Z,14.48
2023-04-05T03:22:03.293Z,18.40
2023-04-05T03:24:36.470Z,13.55
2023-04-05T03:27:08.701Z,17.67
2023-04-05T03:29:45.468Z,15.73
2023-04-05T03:34:55.298Z,11.35
2023-04-05T03:37:25.507Z,15.07
2023-04-05T03:40:07.025Z,16.30
2023-04-05T03:42:37.730Z,15.85
2023-04-05T03:45:09.032Z,17.05
2023-04-05T03:47:39.846Z,11.30
2023-04-05T03:50:11.017Z,14.95
2023-04-05T03:52:40.628Z,13.05
2023-04-05T03:55:10.801Z,13.45
2023-04-05T03:57:43.214Z,12.98
2023-04-05T04:00:24.738Z,15.07
2023-04-05T04:03:14.020Z,20.58
2023-04-05T04:05:47.327Z,12.18
2023-04-05T04:08:16.782Z,17.25
2023-04-05T04:10:46.289Z,15.18
2023-04-05T04:13:23.731Z,13.43
2023-04-05T04:16:02.383Z,15.73
2023-04-05T04:18:54.320Z,16.52
2023-04-05T04:21:39.470Z,15.90
2023-04-05T04:24:36.388Z,18.02
2023-04-05T04:27:39.088Z,17.50
2023-04-05T04:30:22.621Z,15.60
2023-04-05T04:33:12.395Z,14.15
2023-04-05T04:35:55.190Z,20.40
2023-04-05T04:38:44.295Z,17.33
2023-04-05T04:41:48.955Z,13.52
2023-04-05T04:44:36.778Z,16.13
2023-04-05T04:47:23.013Z,13.25
2023-04-05T04:50:01.528Z,16.10
2023-04-05T04:52:35.476Z,20.50
2023-04-05T04:55:05.685Z,15.77
2023-04-05T04:57:35.206Z,15.25
2023-04-05T05:00:12.766Z,21.27
2023-04-05T05:02:44.028Z,22.25
2023-04-05T05:05:16.207Z,18.63
2023-04-05T05:07:47.021Z,17.80
2023-04-05T05:10:17.063Z,19.67
2023-04-05T05:12:48.601Z,18.67
2023-04-05T05:15:18.621Z,17.40
2023-04-05T05:17:52.888Z,18.98
2023-04-05T05:20:23.160Z,18.52
2023-04-05T05:22:54.012Z,21.88
2023-04-05T05:25:23.464Z,18.55
2023-04-05T05:27:52.876Z,28.30
2023-04-05T05:30:25.936Z,19.05
2023-04-05T05:32:55.420Z,20.40
2023-04-05T05:35:24.877Z,19.55
2023-04-05T05:37:56.020Z,17.63
2023-04-05T05:40:26.834Z,16.98
2023-04-05T05:42:56.285Z,18.13
2023-04-05T05:45:25.750Z,16.80
2023-04-05T05:47:56.114Z,12.40
2023-04-05T05:50:25.610Z,16.85
2023-04-05T05:52:56.756Z,16.08
2023-04-05T05:55:26.662Z,16.00
2023-04-05T05:57:56.105Z,15.27
2023-04-05T06:00:25.759Z,18.67
2023-04-05T06:02:55.490Z,12.68
2023-04-05T06:05:25.552Z,13.48
2023-04-05T06:07:56.328Z,13.07
2023-04-05T06:10:25.773Z,15.35
2023-04-05T06:12:55.152Z,15.32
2023-04-05T06:15:24.562Z,15.45
2023-04-05T06:17:53.976Z,13.60
2023-04-05T06:20:23.388Z,13.63
2023-04-05T06:22:52.888Z,12.00
2023-04-05T06:25:23.697Z,12.98
2023-04-05T06:27:53.116Z,15.50
2023-04-05T06:30:22.954Z,16.83
2023-04-05T06:32:54.553Z,16.45
2023-04-05T06:35:25.130Z,16.15
2023-04-05T06:37:54.780Z,14.73
2023-04-05T06:40:25.572Z,14.20
2023-04-05T06:42:55.726Z,13.60
2023-04-05T06:45:31.401Z,16.25
2023-04-05T06:48:00.946Z,15.95
2023-04-05T06:50:30.426Z,10.38
2023-04-05T06:52:59.966Z,12.05
2023-04-05T06:55:31.171Z,10.85
2023-04-05T06:58:00.621Z,13.63
2023-04-05T07:00:30.123Z,10.05
2023-04-05T07:02:59.590Z,14.55
2023-04-05T07:05:29.047Z,11.18
2023-04-05T07:07:58.400Z,11.73
2023-04-05T07:10:27.786Z,13.77
2023-04-05T07:12:58.591Z,11.45
2023-04-05T07:15:28.232Z,15.90
2023-04-05T07:17:57.674Z,12.80
2023-04-05T07:20:27.166Z,12.82
2023-04-05T07:22:57.864Z,13.00
2023-04-05T07:25:27.690Z,12.25
2023-04-05T07:27:58.511Z,12.52
2023-04-05T07:30:28.946Z,11.95
2023-04-05T07:32:58.395Z,11.00
2023-04-05T07:35:28.565Z,12.48
2023-04-05T07:37:57.983Z,11.65
2023-04-05T07:40:27.752Z,11.00
2023-04-05T07:42:58.541Z,10.80
2023-04-05T07:45:27.984Z,14.77
2023-04-05T07:47:57.439Z,9.55
2023-04-05T07:50:28.160Z,8.35
2023-04-05T07:52:57.514Z,10.43
2023-04-05T07:55:27.340Z,9.88
2023-04-05T07:57:58.390Z,10.32
2023-04-05T08:00:27.923Z,13.10
2023-04-05T08:03:01.314Z,10.45
2023-04-05T08:05:31.622Z,9.93
2023-04-05T08:08:01.363Z,9.60
2023-04-05T08:10:30.875Z,9.00
2023-04-05T08:13:01.766Z,9.70
2023-04-05T08:15:31.348Z,8.13
2023-04-05T08:18:00.887Z,9.13
2023-04-05T08:20:30.354Z,8.52
2023-04-05T08:22:59.874Z,7.63
2023-04-05T08:25:29.273Z,7.75
2023-04-05T08:27:58.634Z,10.25
2023-04-05T08:30:29.578Z,7.70
2023-04-05T08:32:59.082Z,8.75
2023-04-05T08:35:28.573Z,19.20
2023-04-05T08:37:58.137Z,6.72
2023-04-05T08:40:42.654Z,10.25
2023-04-05T08:43:20.472Z,10.15
2023-04-05T08:45:54.287Z,11.18
2023-04-05T08:48:23.808Z,6.18
2023-04-05T08:50:55.617Z,6.97
2023-04-05T08:53:25.121Z,7.68
2023-04-05T08:55:58.197Z,11.65
2023-04-05T08:58:29.807Z,6.75
2023-04-05T09:01:01.690Z,7.53
2023-04-05T09:03:37.998Z,8.70
2023-04-05T09:06:11.847Z,11.65
2023-04-05T09:08:42.163Z,8.95
2023-04-05T09:11:13.490Z,8.93
2023-04-05T09:13:42.867Z,6.07
2023-04-05T09:16:16.015Z,9.07
2023-04-05T09:18:45.760Z,8.77
2023-04-05T09:21:16.247Z,7.20
2023-04-05T09:23:56.346Z,6.20
2023-04-05T09:26:27.423Z,6.00
2023-04-05T09:29:00.841Z,5.35
2023-04-05T09:31:37.207Z,5.93
2023-04-05T09:34:21.504Z,5.10
2023-04-05T09:36:51.373Z,6.15
2023-04-05T09:39:31.550Z,7.47
2023-04-05T09:42:11.957Z,7.05
2023-04-05T09:45:01.440Z,5.85
2023-04-05T09:47:35.328Z,6.10
2023-04-05T09:50:21.918Z,6.25
2023-04-05T09:52:52.512Z,7.32
2023-04-05T09:55:29.871Z,5.95
2023-04-05T09:57:59.422Z,7.00
2023-04-05T10:00:31.154Z,8.60
2023-04-05T10:03:02.120Z,6.55
2023-04-05T10:05:32.548Z,7.45
2023-04-05T10:08:02.689Z,8.07
2023-04-05T10:10:37.061Z,8.02
2023-04-05T10:13:07.324Z,7.30
2023-04-05T10:15:37.314Z,8.48
2023-04-05T10:18:19.248Z,7.88
2023-04-05T10:20:53.373Z,9.32
2023-04-05T10:23:29.339Z,7.43
2023-04-05T10:26:14.202Z,7.35
2023-04-05T10:28:49.056Z,7.18
2023-04-05T10:31:37.274Z,6.75
2023-04-05T10:34:28.067Z,6.78
2023-04-05T10:37:02.610Z,8.07
2023-04-05T10:39:42.052Z,6.78
2023-04-05T10:42:22.166Z,7.35
2023-04-05T10:44:55.611Z,8.15
2023-04-05T10:47:28.062Z,7.53
2023-04-05T10:50:05.218Z,6.75
2023-04-05T10:52:35.563Z,7.80
2023-04-05T10:55:05.888Z,7.07
2023-04-05T10:57:36.091Z,6.78
2023-04-05T11:00:08.870Z,5.93
2023-04-05T11:02:38.947Z,5.30
2023-04-05T11:05:32.991Z,7.18
2023-04-05T11:08:07.867Z,6.63
2023-04-05T11:10:40.697Z,6.28
2023-04-05T11:13:11.836Z,6.15
2023-04-05T11:15:41.640Z,6.20
2023-04-05T11:18:13.530Z,5.80
2023-04-05T11:20:55.938Z,6.07
2023-04-05T11:23:27.031Z,5.40
2023-04-05T11:26:05.263Z,7.90
2023-04-05T11:28:39.597Z,11.48
2023-04-05T11:31:19.155Z,4.88
2023-04-05T11:34:11.101Z,6.50
2023-04-05T11:36:47.880Z,5.90
2023-04-05T11:39:30.870Z,5.60
2023-04-05T11:42:04.394Z,5.18
2023-04-05T11:44:54.316Z,5.80
2023-04-05T11:47:23.802Z,9.48
2023-04-05T11:49:53.890Z,6.10
2023-04-05T11:52:24.695Z,5.85
2023-04-05T11:54:54.065Z,7.15
2023-04-05T11:57:25.433Z,4.95
2023-04-05T11:59:55.190Z,5.93
2023-04-05T12:02:25.364Z,7.30
2023-04-05T12:04:58.875Z,6.72
2023-04-05T12:07:36.820Z,7.05
2023-04-05T12:10:11.692Z,6.10
2023-04-05T12:12:45.325Z,5.13
2023-04-05T12:15:18.754Z,5.47
2023-04-05T12:17:51.004Z,6.32
2023-04-05T12:20:24.844Z,9.20
2023-04-05T12:22:57.986Z,5.78
2023-04-05T12:27:56.928Z,6.65
2023-04-05T12:30:36.138Z,6.97
2023-04-05T12:33:10.371Z,6.40
2023-04-05T12:35:40.982Z,5.97
2023-04-05T12:38:17.436Z,10.40
2023-04-05T12:40:46.982Z,5.22
2023-04-05T12:43:19.929Z,7.25
2023-04-05T12:45:50.832Z,6.93
2023-04-05T12:48:25.667Z,5.95
2023-04-05T12:50:55.192Z,6.50
2023-04-05T12:53:28.737Z,6.25
2023-04-05T12:55:59.550Z,7.55
2023-04-05T12:58:37.085Z,5.65
2023-04-05T13:01:07.121Z,7.57
2023-04-05T13:03:36.725Z,5.72
2023-04-05T13:06:06.301Z,7.05
2023-04-05T13:08:37.055Z,7.38
2023-04-05T13:11:06.742Z,6.07
2023-04-05T13:13:36.080Z,5.68
2023-04-05T13:16:05.970Z,6.90
2023-04-05T13:18:35.572Z,9.50
2023-04-05T13:21:07.706Z,6.57
2023-04-05T13:23:40.596Z,7.13
2023-04-05T13:26:10.294Z,7.13
2023-04-05T13:28:39.677Z,5.60
2023-04-05T13:31:09.193Z,7.05
2023-04-05T13:33:38.645Z,7.85
2023-04-05T13:36:11.023Z,6.53
2023-04-05T13:38:42.420Z,7.40
2023-04-05T13:41:11.884Z,6.05
2023-04-05T13:43:41.331Z,7.60
2023-04-05T13:46:10.941Z,7.25
2023-04-05T13:48:40.352Z,5.90
2023-04-05T13:51:09.801Z,5.80
2023-04-05T13:53:39.265Z,5.50
2023-04-05T13:56:10.289Z,5.60
2023-04-05T13:58:39.882Z,5.95
2023-04-05T14:01:09.267Z,7.07
2023-04-05T14:03:38.781Z,5.80
2023-04-05T14:06:08.922Z,5.80
2023-04-05T14:08:38.348Z,6.40
2023-04-05T14:11:09.652Z,7.25
2023-04-05T14:13:39.137Z,6.30
2023-04-05T14:16:08.821Z,6.85
2023-04-05T14:18:38.468Z,7.00
2023-04-05T14:21:08.242Z,7.63
2023-04-05T14:23:38.032Z,8.48
2023-04-05T14:26:09.292Z,7.45
2023-04-05T14:28:38.939Z,5.63
2023-04-05T14:31:08.780Z,6.03
2023-04-05T14:33:38.341Z,5.78
2023-04-05T14:36:08.328Z,5.10
2023-04-05T14:38:37.967Z,7.53
2023-04-05T14:41:10.180Z,7.05
2023-04-05T14:43:40.607Z,8.73
2023-04-05T14:46:10.296Z,5.45
2023-04-05T14:48:39.986Z,5.60
2023-04-05T14:51:09.650Z,5.85
2023-04-05T14:53:39.315Z,6.75
2023-04-05T14:56:10.958Z,6.75
2023-04-05T14:58:40.734Z,5.18
2023-04-05T15:01:11.026Z,5.60
2023-04-05T15:03:40.916Z,6.47
2023-04-05T15:06:10.795Z,6.25
2023-04-05T15:08:40.613Z,6.00
2023-04-05T15:11:11.659Z,6.45
2023-04-05T15:13:41.331Z,6.65
2023-04-05T15:16:11.503Z,5.25
2023-04-05T15:18:41.615Z,7.05
2023-04-05T15:21:11.708Z,5.65
2023-04-05T15:23:41.390Z,5.25
2023-04-05T15:26:12.578Z,8.35
2023-04-05T15:28:42.210Z,5.32
2023-04-05T15:31:12.017Z,9.45
2023-04-05T15:33:41.684Z,7.03
2023-04-05T15:36:11.674Z,6.68
2023-04-05T15:38:41.410Z,6.13
2023-04-05T15:41:12.364Z,4.40
2023-04-05T15:43:41.957Z,4.95
2023-04-05T15:46:11.912Z,5.80
2023-04-05T15:48:43.671Z,6.50
2023-04-05T15:51:13.265Z,6.38
2023-04-05T15:53:42.900Z,6.05
2023-04-05T15:56:13.900Z,7.00
2023-04-05T15:58:43.595Z,5.82
2023-04-05T16:01:13.400Z,5.13
2023-04-05T16:03:43.682Z,5.47
2023-04-05T16:06:13.342Z,7.97
2023-04-05T16:08:43.065Z,6.60
2023-04-05T16:11:14.144Z,7.30
2023-04-05T16:13:43.760Z,5.90
2023-04-05T16:16:20.484Z,6.07
2023-04-05T16:18:54.198Z,6.22
2023-04-05T16:21:23.999Z,6.03
2023-04-05T16:23:53.668Z,5.63
2023-04-05T16:26:24.624Z,5.97
2023-04-05T16:28:54.752Z,8.82
2023-04-05T16:31:24.654Z,6.80
2023-04-05T16:33:54.602Z,6.25
2023-04-05T16:36:24.290Z,7.25
2023-04-05T16:38:53.917Z,7.65
2023-04-05T16:41:24.916Z,5.13
2023-04-05T16:43:54.506Z,5.85
2023-04-05T16:46:24.157Z,6.70
2023-04-05T16:48:53.847Z,7.22
2023-04-05T16:51:23.546Z,7.32
2023-04-05T16:53:53.234Z,6.40
2023-04-05T16:56:24.587Z,6.10
2023-04-05T16:58:55.064Z,7.90
2023-04-05T17:01:24.958Z,6.50
2023-04-05T17:03:54.621Z,5.63
2023-04-05T17:06:24.249Z,5.35
2023-04-05T17:08:53.917Z,6.18
2023-04-05T17:11:24.924Z,5.18
2023-04-05T17:13:54.592Z,6.85
2023-04-05T17:16:25.174Z,5.68
2023-04-05T17:18:54.899Z,5.85
2023-04-05T17:21:25.829Z,8.00
2023-04-05T17:23:55.915Z,5.05
2023-04-05T17:26:27.126Z,6.10
2023-04-05T17:28:56.799Z,6.53
2023-04-05T17:31:26.904Z,8.20
2023-04-05T17:33:56.553Z,7.53
2023-04-05T17:36:27.350Z,7.15
2023-04-05T17:38:57.044Z,6.68
2023-04-05T17:41:28.094Z,9.77
2023-04-05T17:43:58.518Z,8.15
2023-04-05T17:46:40.234Z,7.47
2023-04-05T17:49:12.604Z,7.57
2023-04-05T17:51:42.388Z,8.65
2023-04-05T17:54:12.526Z,7.35
2023-04-05T17:56:43.528Z,6.82
2023-04-05T17:59:13.113Z,9.68
2023-04-05T18:01:42.958Z,10.98
2023-04-05T18:04:12.826Z,9.02
2023-04-05T18:06:42.586Z,12.00
2023-04-05T18:09:12.210Z,14.18
2023-04-05T18:11:43.150Z,9.77
2023-04-05T18:14:12.810Z,10.60
2023-04-05T18:16:42.539Z,11.75
2023-04-05T18:19:12.147Z,10.48
2023-04-05T18:21:41.776Z,11.25
2023-04-05T18:24:12.909Z,8.90
2023-04-05T18:26:45.099Z,7.28
2023-04-05T18:29:14.812Z,9.50
2023-04-05T18:31:44.470Z,20.30
2023-04-05T18:34:14.116Z,10.25
2023-04-05T18:36:43.870Z,11.02
2023-04-05T18:39:13.899Z,10.90
2023-04-05T18:41:44.905Z,9.15
2023-04-05T18:44:14.687Z,11.52
2023-04-05T18:46:45.107Z,9.35
2023-04-05T18:49:15.870Z,12.32
2023-04-05T18:51:46.106Z,9.90
2023-04-05T18:54:18.316Z,9.60
2023-04-05T18:56:49.349Z,11.00
2023-04-05T18:59:19.840Z,10.60
2023-04-05T19:01:49.676Z,9.52
2023-04-05T19:04:19.339Z,9.18
2023-04-05T19:06:49.035Z,11.48
2023-04-05T19:09:19.627Z,11.05
2023-04-05T19:11:50.920Z,9.45
2023-04-05T19:14:20.817Z,11.93
2023-04-05T19:16:50.582Z,11.65
2023-04-05T19:19:20.187Z,12.35
2023-04-05T19:21:49.834Z,12.95
2023-04-05T19:24:20.842Z,12.18
2023-04-05T19:26:52.043Z,10.75
2023-04-05T19:29:21.786Z,9.80
2023-04-05T19:31:51.921Z,12.75
2023-04-05T19:34:21.670Z,9.55
2023-04-05T19:36:51.283Z,13.15
2023-04-05T19:39:25.461Z,15.88
2023-04-05T19:41:57.730Z,15.75
2023-04-05T19:44:51.576Z,13.85
2023-04-05T19:49:55.940Z,12.75
2023-04-05T19:52:46.463Z,11.35
2023-04-05T19:55:33.789Z,13.90
2023-04-05T19:58:10.361Z,10.40
2023-04-05T20:00:48.458Z,13.45
2023-04-05T20:03:30.469Z,14.02
2023-04-05T20:06:10.307Z,11.10
2023-04-05T20:08:42.998Z,8.90
2023-04-05T20:11:15.750Z,11.52
2023-04-05T20:13:50.830Z,9.25
2023-04-05T20:16:27.560Z,16.67
2023-04-05T20:19:03.010Z,22.20
2023-04-05T20:21:33.331Z,20.48
2023-04-05T20:24:04.404Z,19.02
2023-04-05T20:26:34.653Z,15.45
2023-04-05T20:29:10.157Z,17.45
2023-04-05T20:31:40.288Z,16.30
2023-04-05T20:34:12.756Z,18.05
2023-04-05T20:36:51.274Z,17.23
2023-04-05T20:39:23.522Z,20.55
2023-04-05T20:41:53.484Z,19.50
2023-04-05T20:44:25.210Z,23.40
2023-04-05T20:46:57.724Z,22.00
2023-04-05T20:49:29.068Z,18.30
2023-04-05T20:51:58.838Z,17.85
2023-04-05T20:54:28.689Z,18.85
2023-04-05T20:56:58.368Z,18.63
2023-04-05T20:59:29.360Z,16.58
2023-04-05T21:01:59.078Z,16.27
2023-04-05T21:04:30.124Z,17.55
2023-04-05T21:06:59.861Z,20.05
2023-04-05T21:09:30.115Z,15.15
2023-04-05T21:11:59.985Z,16.52
2023-04-05T21:14:31.040Z,14.70
2023-04-05T21:17:00.661Z,12.07
2023-04-05T21:19:30.454Z,11.63
2023-04-05T21:22:00.228Z,14.02
2023-04-05T21:24:29.878Z,12.05
2023-04-05T21:26:59.570Z,12.35
2023-04-05T21:29:30.571Z,13.45
2023-04-05T21:32:00.245Z,14.02
2023-04-05T21:34:29.877Z,16.40
2023-04-05T21:36:59.511Z,16.95
2023-04-05T21:39:29.160Z,18.65
2023-04-05T21:41:59.215Z,17.73
2023-04-05T21:44:30.286Z,15.27
2023-04-05T21:47:00.201Z,16.70
2023-04-05T21:49:29.902Z,18.33
2023-04-05T21:51:59.535Z,15.35
2023-04-05T21:54:29.138Z,20.38
2023-04-05T21:56:58.809Z,14.55
2023-04-05T21:59:29.895Z,16.38
2023-04-05T22:01:59.715Z,13.32
2023-04-05T22:04:30.006Z,15.75
2023-04-05T22:06:59.672Z,16.45
2023-04-05T22:09:34.732Z,18.17
2023-04-05T22:12:05.173Z,13.93
2023-04-05T22:14:36.187Z,13.73
2023-04-05T22:17:05.916Z,13.70
2023-04-05T22:19:35.621Z,11.85
2023-04-05T22:22:05.584Z,12.68
2023-04-05T22:24:35.152Z,15.70
2023-04-05T22:27:04.833Z,11.52
2023-04-05T22:29:36.094Z,13.10
2023-04-05T22:32:06.489Z,15.10
2023-04-05T22:34:36.251Z,19.33
2023-04-05T22:37:05.869Z,16.50
2023-04-05T22:39:35.584Z,11.77
2023-04-05T22:42:05.895Z,20.23
2023-04-05T22:44:36.894Z,12.90
2023-04-05T22:47:06.631Z,13.13
2023-04-05T22:49:36.700Z,13.48
2023-04-05T22:52:06.506Z,15.35
2023-04-05T22:54:36.204Z,16.45
2023-04-05T22:57:05.878Z,11.00
2023-04-05T22:59:42.732Z,14.35
2023-04-05T23:02:12.539Z,12.52
2023-04-05T23:04:42.581Z,14.77
2023-04-05T23:07:12.297Z,16.15
2023-04-05T23:09:41.992Z,13.93
2023-04-05T23:12:11.655Z,17.48
2023-04-05T23:14:42.707Z,13.30
2023-04-05T23:17:12.388Z,16.15
2023-04-05T23:19:42.038Z,14.57
2023-04-05T23:22:11.884Z,20.10
2023-04-05T23:24:41.485Z,11.68
2023-04-05T23:27:11.147Z,13.48
2023-04-05T23:29:42.126Z,13.63
2023-04-05T23:32:12.818Z,12.70
2023-04-05T23:34:42.440Z,12.65
2023-04-05T23:37:12.223Z,17.05
2023-04-05T23:39:41.958Z,12.48
2023-04-05T23:42:11.784Z,12.10
2023-04-05T23:44:42.760Z,14.82
2023-04-05T23:47:12.346Z,12.68
2023-04-05T23:49:42.024Z,15.30
2023-04-05T23:52:11.705Z,14.00
2023-04-05T23:54:41.509Z,12.73
2023-04-05T23:57:11.238Z,9.68
2023-04-05T23:59:42.278Z,11.68
